createdAt,value
2018-04-18T00:00:33.577Z,13.28
2018-04-18T00:03:06.230Z,13.34
2018-04-18T00:05:32.868Z,13.27
2018-04-18T00:07:58.673Z,13.21
2018-04-18T00:10:24.444Z,13.16
2018-04-18T00:12:50.242Z,13.09
2018-04-18T00:15:16.031Z,13.19
2018-04-18T00:17:41.841Z,13.21
2018-04-18T00:20:07.621Z,13.06
2018-04-18T00:22:33.403Z,12.99
2018-04-18T00:24:59.197Z,12.94
2018-04-18T00:27:24.977Z,13.06
2018-04-18T00:29:50.759Z,13.06
2018-04-18T00:32:16.570Z,13.13
2018-04-18T00:34:42.360Z,13.02
2018-04-18T00:37:08.137Z,12.90
2018-04-18T00:39:33.952Z,12.99
2018-04-18T00:41:59.750Z,13.17
2018-04-18T00:44:25.542Z,12.65
2018-04-18T00:46:51.335Z,12.82
2018-04-18T00:49:17.116Z,12.74
2018-04-18T00:51:42.900Z,12.72
2018-04-18T00:54:08.716Z,12.82
2018-04-18T00:56:34.492Z,13.06
2018-04-18T00:59:00.279Z,13.01
2018-04-18T01:01:26.064Z,12.85
2018-04-18T01:03:51.997Z,13.00
2018-04-18T01:06:17.782Z,13.25
2018-04-18T01:08:43.564Z,13.40
2018-04-18T01:11:09.462Z,13.34
2018-04-18T01:13:35.258Z,13.42
2018-04-18T01:16:01.045Z,13.31
2018-04-18T01:18:26.821Z,13.29
2018-04-18T01:20:52.724Z,13.30
2018-04-18T01:23:18.597Z,13.24
2018-04-18T01:25:44.372Z,13.09
2018-04-18T01:28:10.185Z,13.12
2018-04-18T01:30:35.987Z,12.95
2018-04-18T01:33:01.799Z,12.75
2018-04-18T01:35:27.729Z,12.77
2018-04-18T01:37:54.209Z,12.59
2018-04-18T01:40:19.998Z,12.63
2018-04-18T01:42:46.105Z,12.97
2018-04-18T01:45:11.922Z,13.23
2018-04-18T01:47:37.714Z,12.92
2018-04-18T01:50:03.511Z,13.02
2018-04-18T01:52:30.193Z,13.16
2018-04-18T01:54:56.051Z,13.08
2018-04-18T01:57:21.825Z,13.07
2018-04-18T01:59:47.597Z,13.02
2018-04-18T02:02:13.377Z,13.21
2018-04-18T02:04:39.177Z,13.18
2018-04-18T02:07:04.978Z,13.20
2018-04-18T02:09:30.934Z,13.05
2018-04-18T02:11:56.715Z,13.20
2018-04-18T02:14:22.877Z,13.02
2018-04-18T02:16:48.681Z,13.00
2018-04-18T02:19:14.457Z,12.88
2018-04-18T02:21:40.284Z,12.95
2018-04-18T02:24:06.057Z,13.01
2018-04-18T02:26:31.829Z,13.05
2018-04-18T02:28:57.645Z,12.80
2018-04-18T02:31:23.456Z,13.00
2018-04-18T02:33:49.258Z,13.03
2018-04-18T02:36:15.233Z,13.10
2018-04-18T02:38:41.027Z,13.05
2018-04-18T02:41:06.817Z,12.98
2018-04-18T02:43:32.645Z,12.95
2018-04-18T02:45:58.430Z,13.03
2018-04-18T02:48:24.237Z,13.02
2018-04-18T02:50:50.051Z,13.08
2018-04-18T02:53:15.850Z,13.34
2018-04-18T02:55:41.632Z,13.39
2018-04-18T02:58:07.441Z,13.40
2018-04-18T03:00:33.229Z,13.06
2018-04-18T03:02:59.022Z,13.12
2018-04-18T03:05:24.818Z,13.11
2018-04-18T03:07:50.607Z,13.16
2018-04-18T03:10:16.394Z,13.19
2018-04-18T03:12:42.204Z,12.98
2018-04-18T03:15:07.989Z,13.14
2018-04-18T03:17:33.787Z,13.22
2018-04-18T03:19:59.601Z,13.10
2018-04-18T03:22:25.402Z,13.32
2018-04-18T03:24:51.191Z,12.89
2018-04-18T03:27:17.108Z,12.97
2018-04-18T03:29:49.976Z,12.93
2018-04-18T03:32:15.765Z,12.88
2018-04-18T03:34:41.832Z,12.68
2018-04-18T03:37:07.623Z,12.95
2018-04-18T03:39:33.408Z,13.10
2018-04-18T03:41:59.189Z,13.12
2018-04-18T03:44:25.002Z,13.08
2018-04-18T03:46:50.774Z,12.95
2018-04-18T03:49:16.557Z,12.84
2018-04-18T03:51:42.349Z,12.72
2018-04-18T03:54:08.162Z,12.64
2018-04-18T03:56:33.911Z,12.05
2018-04-18T03:58:59.718Z,11.73
2018-04-18T04:01:25.544Z,11.55
2018-04-18T04:03:51.317Z,11.45
2018-04-18T04:06:17.136Z,11.38
2018-04-18T04:08:42.921Z,11.36
2018-04-18T04:11:08.709Z,11.48
2018-04-18T04:13:34.558Z,11.64
2018-04-18T04:16:01.173Z,12.09
2018-04-18T04:18:39.444Z,11.72
2018-04-18T04:21:17.454Z,11.49
2018-04-18T04:23:55.697Z,11.40
2018-04-18T04:26:21.498Z,11.28
2018-04-18T04:28:47.288Z,11.23
2018-04-18T04:31:13.097Z,11.18
2018-04-18T04:33:38.896Z,11.08
2018-04-18T04:36:04.693Z,11.12
2018-04-18T04:38:30.569Z,11.11
2018-04-18T04:40:56.369Z,11.10
2018-04-18T04:43:22.144Z,11.26
2018-04-18T04:45:48.156Z,11.34
2018-04-18T04:48:13.941Z,11.18
2018-04-18T04:50:39.717Z,11.39
2018-04-18T04:53:05.535Z,11.21
2018-04-18T04:55:31.329Z,11.27
2018-04-18T04:57:57.118Z,11.53
2018-04-18T05:00:22.915Z,12.00
2018-04-18T05:02:48.696Z,12.36
2018-04-18T05:05:14.480Z,11.89
2018-04-18T05:07:40.307Z,11.66
2018-04-18T05:10:06.092Z,11.52
2018-04-18T05:12:31.865Z,11.52
2018-04-18T05:14:57.649Z,11.96
2018-04-18T05:17:23.453Z,12.30
2018-04-18T05:19:49.280Z,12.52
2018-04-18T05:22:15.059Z,12.28
2018-04-18T05:24:40.840Z,12.28
2018-04-18T05:27:06.634Z,12.40
2018-04-18T05:29:32.411Z,12.66
2018-04-18T05:31:58.201Z,12.65
2018-04-18T05:34:23.985Z,12.76
2018-04-18T05:36:49.765Z,12.65
2018-04-18T05:39:15.570Z,12.43
2018-04-18T05:41:41.557Z,12.39
2018-04-18T05:44:07.356Z,12.36
2018-04-18T05:46:33.135Z,12.40
2018-04-18T05:48:58.920Z,12.47
2018-04-18T05:51:24.725Z,12.57
2018-04-18T05:53:50.505Z,12.63
2018-04-18T05:56:16.305Z,12.61
2018-04-18T05:58:42.124Z,12.64
2018-04-18T06:01:07.902Z,12.66
2018-04-18T06:03:33.688Z,12.69
2018-04-18T06:05:59.495Z,12.76
2018-04-18T06:08:25.289Z,12.85
2018-04-18T06:10:51.069Z,12.93
2018-04-18T06:13:16.906Z,13.01
2018-04-18T06:15:42.682Z,13.09
2018-04-18T06:18:08.465Z,13.21
2018-04-18T06:20:34.257Z,13.36
2018-04-18T06:23:00.034Z,13.45
2018-04-18T06:25:25.824Z,13.52
2018-04-18T06:27:51.601Z,13.64
2018-04-18T06:30:17.424Z,13.71
2018-04-18T06:32:43.207Z,13.83
2018-04-18T06:35:08.982Z,13.97
2018-04-18T06:37:34.791Z,14.12
2018-04-18T06:40:00.621Z,14.23
2018-04-18T06:42:26.373Z,14.34
2018-04-18T06:44:52.186Z,14.42
2018-04-18T06:47:17.982Z,14.52
2018-04-18T06:49:43.769Z,14.65
2018-04-18T06:52:09.782Z,14.74
2018-04-18T06:54:35.565Z,14.85
2018-04-18T06:57:01.362Z,14.95
2018-04-18T06:59:27.174Z,15.03
2018-04-18T07:01:52.954Z,15.10
2018-04-18T07:04:18.733Z,15.22
2018-04-18T07:06:44.698Z,15.38
2018-04-18T07:09:10.476Z,15.55
2018-04-18T07:11:36.270Z,15.59
2018-04-18T07:14:02.113Z,15.70
2018-04-18T07:16:27.895Z,15.79
2018-04-18T07:18:53.672Z,15.93
2018-04-18T07:21:19.709Z,15.98
2018-04-18T07:23:45.513Z,16.15
2018-04-18T07:26:11.316Z,16.18
2018-04-18T07:28:37.108Z,16.26
2018-04-18T07:31:02.912Z,16.38
2018-04-18T07:33:28.699Z,16.58
2018-04-18T07:35:54.505Z,16.69
2018-04-18T07:38:20.318Z,16.98
2018-04-18T07:40:46.343Z,17.04
2018-04-18T07:43:12.331Z,17.14
2018-04-18T07:45:38.136Z,17.32
2018-04-18T07:48:03.935Z,17.23
2018-04-18T07:50:29.888Z,17.33
2018-04-18T07:52:56.169Z,17.40
2018-04-18T07:55:22.026Z,17.45
2018-04-18T07:57:48.117Z,17.62
2018-04-18T08:00:14.044Z,17.92
2018-04-18T08:02:39.892Z,17.94
2018-04-18T08:05:05.694Z,17.93
2018-04-18T08:07:32.412Z,18.00
2018-04-18T08:09:58.478Z,18.03
2018-04-18T08:12:24.765Z,18.12
2018-04-18T08:14:50.743Z,18.21
2018-04-18T08:17:16.617Z,18.24
2018-04-18T08:19:43.457Z,18.31
2018-04-18T08:22:09.350Z,18.36
2018-04-18T08:24:35.405Z,18.49
2018-04-18T08:27:01.625Z,18.66
2018-04-18T08:29:27.466Z,18.73
2018-04-18T08:31:53.285Z,18.72
2018-04-18T08:34:19.407Z,18.78
2018-04-18T08:36:45.335Z,18.80
2018-04-18T08:39:11.359Z,18.83
2018-04-18T08:41:37.244Z,18.90
2018-04-18T08:44:03.089Z,18.92
2018-04-18T08:46:28.934Z,19.11
2018-04-18T08:48:54.900Z,19.04
2018-04-18T08:51:21.037Z,19.13
2018-04-18T08:53:46.837Z,19.24
2018-04-18T08:56:19.806Z,19.48
2018-04-18T08:58:46.609Z,19.52
2018-04-18T09:01:13.008Z,19.56
2018-04-18T09:03:39.238Z,19.48
2018-04-18T09:06:05.098Z,19.53
2018-04-18T09:08:30.974Z,19.56
2018-04-18T09:10:57.369Z,19.51
2018-04-18T09:13:23.661Z,19.86
2018-04-18T09:15:49.763Z,20.03
2018-04-18T09:18:15.620Z,20.03
2018-04-18T09:20:41.629Z,20.06
2018-04-18T09:23:07.470Z,19.98
2018-04-18T09:25:33.306Z,19.96
2018-04-18T09:27:59.185Z,20.11
2018-04-18T09:30:25.248Z,20.13
2018-04-18T09:32:51.250Z,20.12
2018-04-18T09:35:17.323Z,20.18
2018-04-18T09:37:43.300Z,20.25
2018-04-18T09:40:09.490Z,20.14
2018-04-18T09:42:35.329Z,20.17
2018-04-18T09:45:01.423Z,20.08
2018-04-18T09:47:27.271Z,20.25
2018-04-18T09:49:53.087Z,20.20
2018-04-18T09:52:18.944Z,20.34
2018-04-18T09:54:44.859Z,20.24
2018-04-18T09:57:10.690Z,20.54
2018-04-18T09:59:36.578Z,20.47
2018-04-18T10:02:08.809Z,20.37
2018-04-18T10:04:34.668Z,20.45
2018-04-18T10:07:00.583Z,20.59
2018-04-18T10:09:26.590Z,20.72
2018-04-18T10:11:52.499Z,20.80
2018-04-18T10:14:18.332Z,20.64
2018-04-18T10:16:44.167Z,20.76
2018-04-18T10:19:10.183Z,20.77
2018-04-18T10:21:36.336Z,20.76
2018-04-18T10:24:02.211Z,20.87
2018-04-18T10:26:28.301Z,20.83
2018-04-18T10:31:40.577Z,20.78
2018-04-18T10:34:06.769Z,20.83
2018-04-18T10:36:32.611Z,21.00
2018-04-18T10:38:59.456Z,20.78
2018-04-18T10:41:25.580Z,20.96
2018-04-18T10:43:51.658Z,21.01
2018-04-18T10:46:17.585Z,21.16
2018-04-18T10:48:43.469Z,21.35
2018-04-18T10:51:09.985Z,21.39
2018-04-18T10:53:36.449Z,21.22
2018-04-18T10:56:02.513Z,21.32
2018-04-18T10:58:28.465Z,21.38
2018-04-18T11:00:54.968Z,21.41
2018-04-18T11:03:20.873Z,21.39
2018-04-18T11:05:46.848Z,21.52
2018-04-18T11:08:12.652Z,21.45
2018-04-18T11:10:38.481Z,21.54
2018-04-18T11:13:04.288Z,21.31
2018-04-18T11:15:30.237Z,21.38
2018-04-18T11:17:56.302Z,21.45
2018-04-18T11:20:22.141Z,21.33
2018-04-18T11:22:47.961Z,21.55
2018-04-18T11:25:13.772Z,21.75
2018-04-18T11:27:39.568Z,21.58
2018-04-18T11:30:05.405Z,21.17
2018-04-18T11:32:31.533Z,21.36
2018-04-18T11:34:57.329Z,21.50
2018-04-18T11:37:23.111Z,21.50
2018-04-18T11:39:48.911Z,21.84
2018-04-18T11:42:14.790Z,21.83
2018-04-18T11:44:40.605Z,21.79
2018-04-18T11:47:06.388Z,21.87
2018-04-18T11:49:32.183Z,21.46
2018-04-18T11:51:58.043Z,21.57
2018-04-18T11:54:23.803Z,21.58
2018-04-18T11:56:49.573Z,21.73
2018-04-18T11:59:15.374Z,21.91
2018-04-18T12:01:41.170Z,21.85
2018-04-18T12:04:06.990Z,21.94
2018-04-18T12:06:32.787Z,21.76
2018-04-18T12:08:58.580Z,21.80
2018-04-18T12:11:24.352Z,22.09
2018-04-18T12:13:50.149Z,22.23
2018-04-18T12:16:15.955Z,22.36
2018-04-18T12:18:41.755Z,22.50
2018-04-18T12:21:07.554Z,22.83
2018-04-18T12:23:33.358Z,23.12
2018-04-18T12:25:59.146Z,23.05
2018-04-18T12:28:24.926Z,23.21
2018-04-18T12:30:50.981Z,23.47
2018-04-18T12:33:16.766Z,23.79
2018-04-18T12:35:42.558Z,23.05
2018-04-18T12:38:08.339Z,23.87
2018-04-18T12:40:34.196Z,23.33
2018-04-18T12:42:59.969Z,23.21
2018-04-18T12:45:25.757Z,23.37
2018-04-18T12:47:51.546Z,23.68
2018-04-18T12:50:17.355Z,23.77
2018-04-18T12:52:43.137Z,24.05
2018-04-18T12:55:08.921Z,24.31
2018-04-18T12:57:34.775Z,24.35
2018-04-18T13:00:00.570Z,24.49
2018-04-18T13:02:26.368Z,24.91
2018-04-18T13:04:52.145Z,24.87
2018-04-18T13:07:17.958Z,24.84
2018-04-18T13:09:43.762Z,24.86
2018-04-18T13:12:09.547Z,24.65
2018-04-18T13:14:35.350Z,24.80
2018-04-18T13:17:01.158Z,25.31
2018-04-18T13:19:26.934Z,25.56
2018-04-18T13:21:52.721Z,25.09
2018-04-18T13:24:18.641Z,25.36
2018-04-18T13:26:44.457Z,25.21
2018-04-18T13:29:10.227Z,25.62
2018-04-18T13:31:36.304Z,25.08
2018-04-18T13:34:02.130Z,24.92
2018-04-18T13:36:27.914Z,25.68
2018-04-18T13:38:53.715Z,25.46
2018-04-18T13:41:19.493Z,25.61
2018-04-18T13:43:45.266Z,25.05
2018-04-18T13:46:11.072Z,25.64
2018-04-18T13:48:36.853Z,25.69
2018-04-18T13:51:02.642Z,25.92
2018-04-18T13:53:28.418Z,25.06
2018-04-18T13:55:54.203Z,25.37
2018-04-18T13:58:20.011Z,25.40
2018-04-18T14:00:45.786Z,25.92
2018-04-18T14:03:11.570Z,26.33
2018-04-18T14:05:37.383Z,25.92
2018-04-18T14:08:03.180Z,25.22
2018-04-18T14:10:28.959Z,26.01
2018-04-18T14:12:54.765Z,26.06
2018-04-18T14:15:20.591Z,25.65
2018-04-18T14:17:46.346Z,25.39
2018-04-18T14:20:12.143Z,25.61
2018-04-18T14:22:37.917Z,26.10
2018-04-18T14:25:03.739Z,26.46
2018-04-18T14:27:29.538Z,25.92
2018-04-18T14:29:55.344Z,25.56
2018-04-18T14:32:21.149Z,25.60
2018-04-18T14:34:46.938Z,26.02
2018-04-18T14:37:12.730Z,25.90
2018-04-18T14:39:38.710Z,26.85
2018-04-18T14:42:04.498Z,26.36
2018-04-18T14:44:30.278Z,25.91
2018-04-18T14:46:56.084Z,26.09
2018-04-18T14:49:21.888Z,25.71
2018-04-18T14:51:47.703Z,25.72
2018-04-18T14:54:13.821Z,25.46
2018-04-18T14:56:39.611Z,25.10
2018-04-18T14:59:05.398Z,24.94
2018-04-18T15:01:31.453Z,24.89
2018-04-18T15:03:57.281Z,25.34
2018-04-18T15:06:23.060Z,25.05
2018-04-18T15:08:48.857Z,25.38
2018-04-18T15:11:14.641Z,25.16
2018-04-18T15:13:40.421Z,24.83
2018-04-18T15:16:06.233Z,25.08
2018-04-18T15:18:32.077Z,25.18
2018-04-18T15:20:57.858Z,24.86
2018-04-18T15:23:23.658Z,24.92
2018-04-18T15:25:49.433Z,24.74
2018-04-18T15:28:15.252Z,25.08
2018-04-18T15:30:41.405Z,25.41
2018-04-18T15:33:07.196Z,25.38
2018-04-18T15:35:33.038Z,24.99
2018-04-18T15:37:58.826Z,25.23
2018-04-18T15:40:24.606Z,24.96
2018-04-18T15:42:50.409Z,24.92
2018-04-18T15:45:16.192Z,25.02
2018-04-18T15:47:41.989Z,24.87
2018-04-18T15:50:07.782Z,24.52
2018-04-18T15:52:33.564Z,24.59
2018-04-18T15:54:59.695Z,24.59
2018-04-18T15:57:25.490Z,24.46
2018-04-18T15:59:51.270Z,24.71
2018-04-18T16:02:17.074Z,24.86
2018-04-18T16:04:42.853Z,24.77
2018-04-18T16:07:08.883Z,24.53
2018-04-18T16:09:34.830Z,24.37
2018-04-18T16:12:00.773Z,24.38
2018-04-18T16:14:26.705Z,24.36
2018-04-18T16:16:52.567Z,24.08
2018-04-18T16:19:18.418Z,23.98
2018-04-18T16:21:45.081Z,23.85
2018-04-18T16:24:11.804Z,23.67
2018-04-18T16:26:38.420Z,23.74
2018-04-18T16:29:18.210Z,23.45
2018-04-18T16:31:45.007Z,23.54
2018-04-18T16:34:11.635Z,23.48
2018-04-18T16:36:38.337Z,23.25
2018-04-18T16:39:05.163Z,23.33
2018-04-18T16:41:32.507Z,23.23
2018-04-18T16:43:59.122Z,23.14
2018-04-18T16:46:25.591Z,23.07
2018-04-18T16:48:52.127Z,22.96
2018-04-18T16:51:18.789Z,23.04
2018-04-18T16:53:45.461Z,23.04
2018-04-18T16:56:11.785Z,23.01
2018-04-18T16:58:38.578Z,22.97
2018-04-18T17:01:05.349Z,22.82
2018-04-18T17:03:31.877Z,22.85
2018-04-18T17:05:59.387Z,22.72
2018-04-18T17:08:25.984Z,22.70
2018-04-18T17:10:52.622Z,22.69
2018-04-18T17:13:19.625Z,22.59
2018-04-18T17:15:46.500Z,22.45
2018-04-18T17:18:14.049Z,22.37
2018-04-18T17:20:41.428Z,22.38
2018-04-18T17:23:07.921Z,22.38
2018-04-18T17:25:34.362Z,22.24
2018-04-18T17:28:01.116Z,22.15
2018-04-18T17:30:28.127Z,22.11
2018-04-18T17:32:54.733Z,21.99
2018-04-18T17:35:21.568Z,21.94
2018-04-18T17:37:48.136Z,21.86
2018-04-18T17:40:14.827Z,21.89
2018-04-18T17:42:41.452Z,21.79
2018-04-18T17:45:07.997Z,21.72
2018-04-18T17:47:35.675Z,21.65
2018-04-18T17:50:02.243Z,21.55
2018-04-18T17:52:35.819Z,21.55
2018-04-18T17:55:02.398Z,21.53
2018-04-18T17:57:28.903Z,21.52
2018-04-18T17:59:55.537Z,21.55
2018-04-18T18:02:22.052Z,21.44
2018-04-18T18:04:48.755Z,21.35
2018-04-18T18:07:15.084Z,21.25
2018-04-18T18:09:41.829Z,21.19
2018-04-18T18:12:08.828Z,21.23
2018-04-18T18:14:35.498Z,21.22
2018-04-18T18:17:02.263Z,21.17
2018-04-18T18:19:29.025Z,21.07
2018-04-18T18:21:55.658Z,21.04
2018-04-18T18:24:22.417Z,20.95
2018-04-18T18:26:49.284Z,21.07
2018-04-18T18:29:16.164Z,20.95
2018-04-18T18:31:42.968Z,20.88
2018-04-18T18:34:10.383Z,20.64
2018-04-18T18:36:37.146Z,20.57
2018-04-18T18:39:04.768Z,20.59
2018-04-18T18:41:31.585Z,20.42
2018-04-18T18:43:59.267Z,20.33
2018-04-18T18:46:26.105Z,20.34
2018-04-18T18:48:52.827Z,20.29
2018-04-18T18:51:19.687Z,20.18
2018-04-18T18:53:46.339Z,20.08
2018-04-18T18:56:12.932Z,19.97
2018-04-18T18:58:39.894Z,20.02
2018-04-18T19:01:06.865Z,20.02
2018-04-18T19:03:34.375Z,19.93
2018-04-18T19:06:01.183Z,19.80
2018-04-18T19:08:27.795Z,19.82
2018-04-18T19:10:54.535Z,19.73
2018-04-18T19:13:21.271Z,19.63
2018-04-18T19:15:47.622Z,19.62
2018-04-18T19:18:15.167Z,19.64
2018-04-18T19:20:41.900Z,19.54
2018-04-18T19:23:08.402Z,19.46
2018-04-18T19:25:35.443Z,19.46
2018-04-18T19:28:01.983Z,19.39
2018-04-18T19:30:28.594Z,19.31
2018-04-18T19:32:55.020Z,19.22
2018-04-18T19:35:22.344Z,19.21
2018-04-18T19:37:49.066Z,19.19
2018-04-18T19:40:15.679Z,19.18
2018-04-18T19:42:42.555Z,19.08
2018-04-18T19:45:09.574Z,19.02
2018-04-18T19:47:36.088Z,19.00
2018-04-18T19:50:02.721Z,18.91
2018-04-18T19:52:29.223Z,18.79
2018-04-18T19:54:55.793Z,18.86
2018-04-18T19:57:23.555Z,18.78
2018-04-18T19:59:50.117Z,18.81
2018-04-18T20:02:16.679Z,18.70
2018-04-18T20:04:43.407Z,18.62
2018-04-18T20:07:11.082Z,18.61
2018-04-18T20:09:37.722Z,18.49
2018-04-18T20:12:04.466Z,18.38
2018-04-18T20:14:33.281Z,18.42
2018-04-18T20:16:59.787Z,18.32
2018-04-18T20:19:26.490Z,18.27
2018-04-18T20:21:53.269Z,18.25
2018-04-18T20:24:19.765Z,18.16
2018-04-18T20:26:46.586Z,18.27
2018-04-18T20:29:13.243Z,18.23
2018-04-18T20:31:40.010Z,18.26
2018-04-18T20:34:06.728Z,18.15
2018-04-18T20:36:37.520Z,18.14
2018-04-18T20:39:04.863Z,18.09
2018-04-18T20:41:32.055Z,17.91
2018-04-18T20:43:58.801Z,18.26
2018-04-18T20:46:25.901Z,18.18
2018-04-18T20:48:52.457Z,18.16
2018-04-18T20:51:19.137Z,18.15
2018-04-18T20:53:46.001Z,18.03
2018-04-18T20:56:12.596Z,18.05
2018-04-18T20:58:39.233Z,18.17
2018-04-18T21:01:05.995Z,17.97
2018-04-18T21:03:32.685Z,18.04
2018-04-18T21:05:59.331Z,18.03
2018-04-18T21:08:26.911Z,17.87
2018-04-18T21:10:53.423Z,17.81
2018-04-18T21:13:20.156Z,17.77
2018-04-18T21:15:47.817Z,17.87
2018-04-18T21:18:14.798Z,17.88
2018-04-18T21:20:41.445Z,17.94
2018-04-18T21:23:09.196Z,17.82
2018-04-18T21:25:35.898Z,17.94
2018-04-18T21:28:02.894Z,17.88
2018-04-18T21:30:29.528Z,17.80
2018-04-18T21:32:56.363Z,17.86
2018-04-18T21:35:24.714Z,17.98
2018-04-18T21:37:52.041Z,17.73
2018-04-18T21:40:19.022Z,17.67
2018-04-18T21:42:46.082Z,17.45
2018-04-18T21:45:12.700Z,17.53
2018-04-18T21:47:39.308Z,17.71
2018-04-18T21:50:05.919Z,17.57
2018-04-18T21:52:32.563Z,17.42
2018-04-18T21:54:59.411Z,17.30
2018-04-18T21:57:26.041Z,17.46
2018-04-18T21:59:52.612Z,17.51
2018-04-18T22:02:19.268Z,17.46
2018-04-18T22:04:45.971Z,17.30
2018-04-18T22:07:12.571Z,17.17
2018-04-18T22:09:40.350Z,17.20
2018-04-18T22:12:06.819Z,17.19
2018-04-18T22:14:33.349Z,17.23
2018-04-18T22:17:00.156Z,17.11
2018-04-18T22:19:26.680Z,17.03
2018-04-18T22:21:54.113Z,16.94
2018-04-18T22:24:20.787Z,16.86
2018-04-18T22:26:49.130Z,16.75
2018-04-18T22:29:15.568Z,16.78
2018-04-18T22:31:42.241Z,16.79
2018-04-18T22:34:09.764Z,16.86
2018-04-18T22:36:36.362Z,16.98
2018-04-18T22:39:02.970Z,16.66
2018-04-18T22:41:29.741Z,16.73
2018-04-18T22:43:56.369Z,16.83
2018-04-18T22:46:23.296Z,16.86
2018-04-18T22:48:49.910Z,16.39
2018-04-18T22:51:16.611Z,16.56
2018-04-18T22:53:46.210Z,16.48
2018-04-18T22:56:12.845Z,16.31
2018-04-18T22:58:38.686Z,16.24
2018-04-18T23:01:04.500Z,16.21
2018-04-18T23:03:30.287Z,16.22
2018-04-18T23:05:56.084Z,16.21
2018-04-18T23:08:21.871Z,16.17
2018-04-18T23:10:47.667Z,16.21
2018-04-18T23:13:13.449Z,16.20
2018-04-18T23:15:39.273Z,16.21
2018-04-18T23:18:05.081Z,16.24
2018-04-18T23:20:30.857Z,16.25
2018-04-18T23:22:56.671Z,16.00
2018-04-18T23:25:22.486Z,16.02
2018-04-18T23:27:48.260Z,16.28
2018-04-18T23:30:14.057Z,16.14
2018-04-18T23:32:39.857Z,16.17
2018-04-18T23:35:05.674Z,16.04
2018-04-18T23:37:31.482Z,16.14
2018-04-18T23:39:57.279Z,16.19
2018-04-18T23:42:23.076Z,15.97
2018-04-18T23:44:48.891Z,15.97
2018-04-18T23:47:14.696Z,15.69
2018-04-18T23:49:40.505Z,15.79
2018-04-18T23:52:06.281Z,15.77
2018-04-18T23:54:32.059Z,15.83
2018-04-18T23:56:57.845Z,15.69
2018-04-18T23:59:23.618Z,15.74
